createdAt,value
2024-04-12T00:00:23.710Z,0.00
2024-04-12T00:01:23.731Z,0.00
2024-04-12T00:02:23.765Z,0.00
2024-04-12T00:03:23.824Z,0.00
2024-04-12T00:04:23.666Z,0.00
2024-04-12T00:05:23.642Z,0.00
2024-04-12T00:06:23.699Z,0.00
2024-04-12T00:07:23.696Z,0.00
2024-04-12T00:08:23.617Z,0.00
2024-04-12T00:09:23.653Z,0.00
2024-04-12T00:10:23.700Z,0.00
2024-04-12T00:11:23.712Z,0.00
2024-04-12T00:12:23.796Z,0.00
2024-04-12T00:13:23.707Z,0.00
2024-04-12T00:14:23.798Z,0.00
2024-04-12T00:15:23.709Z,0.00
2024-04-12T00:16:23.525Z,0.00
2024-04-12T00:17:23.583Z,0.00
2024-04-12T00:18:23.590Z,0.00
2024-04-12T00:19:23.529Z,0.00
2024-04-12T00:20:23.488Z,0.00
2024-04-12T00:21:23.472Z,0.00
2024-04-12T00:22:23.488Z,0.00
2024-04-12T00:23:23.450Z,0.00
2024-04-12T00:24:23.499Z,0.00
2024-04-12T00:25:23.478Z,0.00
2024-04-12T00:26:23.430Z,0.00
2024-04-12T00:27:23.710Z,0.00
2024-04-12T00:28:23.407Z,0.00
2024-04-12T00:29:23.388Z,0.00
2024-04-12T00:30:23.393Z,0.00
2024-04-12T00:31:23.390Z,0.00
2024-04-12T00:32:31.243Z,0.00
2024-04-12T00:33:23.474Z,0.00
2024-04-12T00:34:23.341Z,0.00
2024-04-12T00:35:23.329Z,0.00
2024-04-12T00:36:23.324Z,0.00
2024-04-12T00:37:23.303Z,0.00
2024-04-12T00:38:23.351Z,0.00
2024-04-12T00:39:23.295Z,0.00
2024-04-12T00:40:23.267Z,0.00
2024-04-12T00:41:23.270Z,0.00
2024-04-12T00:42:23.260Z,0.00
2024-04-12T00:43:23.256Z,0.00
2024-04-12T00:44:23.256Z,0.00
2024-04-12T00:45:23.220Z,0.00
2024-04-12T00:46:23.274Z,0.00
2024-04-12T00:47:23.226Z,0.00
2024-04-12T00:48:23.418Z,0.00
2024-04-12T00:49:23.179Z,0.00
2024-04-12T00:50:23.229Z,0.00
2024-04-12T00:51:23.163Z,0.00
2024-04-12T00:52:23.155Z,0.00
2024-04-12T00:53:23.138Z,0.00
2024-04-12T00:54:23.152Z,0.00
2024-04-12T00:55:23.108Z,0.00
2024-04-12T00:56:23.138Z,0.00
2024-04-12T00:57:23.100Z,0.00
2024-04-12T00:58:23.084Z,0.00
2024-04-12T00:59:23.080Z,0.00
2024-04-12T01:00:23.057Z,0.00
2024-04-12T01:01:23.119Z,0.00
2024-04-12T01:02:23.134Z,0.00
2024-04-12T01:03:23.128Z,0.00
2024-04-12T01:04:23.126Z,0.00
2024-04-12T01:05:23.008Z,0.00
2024-04-12T01:06:23.016Z,0.00
2024-04-12T01:07:22.979Z,0.00
2024-04-12T01:08:23.008Z,0.00
2024-04-12T01:09:22.953Z,0.00
2024-04-12T01:10:22.958Z,0.00
2024-04-12T01:11:22.958Z,0.00
2024-04-12T01:12:22.934Z,0.00
2024-04-12T01:13:22.976Z,0.00
2024-04-12T01:14:22.902Z,0.00
2024-04-12T01:15:22.910Z,0.00
2024-04-12T01:16:22.885Z,0.00
2024-04-12T01:17:22.890Z,0.00
2024-04-12T01:18:22.956Z,0.00
2024-04-12T01:19:22.885Z,0.00
2024-04-12T01:20:23.716Z,0.00
2024-04-12T01:21:22.831Z,0.00
2024-04-12T01:22:22.825Z,0.00
2024-04-12T01:23:22.807Z,0.00
2024-04-12T01:24:22.807Z,0.00
2024-04-12T01:25:22.829Z,0.00
2024-04-12T01:26:22.780Z,0.00
2024-04-12T01:27:22.775Z,0.00
2024-04-12T01:28:22.753Z,0.00
2024-04-12T01:29:22.740Z,0.00
2024-04-12T01:30:22.740Z,0.00
2024-04-12T01:31:22.739Z,0.00
2024-04-12T01:32:22.851Z,0.00
2024-04-12T01:33:22.794Z,0.00
2024-04-12T01:34:22.692Z,0.00
2024-04-12T01:35:22.684Z,0.00
2024-04-12T01:36:22.666Z,0.00
2024-04-12T01:37:22.663Z,0.00
2024-04-12T01:38:22.642Z,0.00
2024-04-12T01:39:22.683Z,0.00
2024-04-12T01:40:22.633Z,0.00
2024-04-12T01:41:22.599Z,0.00
2024-04-12T01:42:23.213Z,0.00
2024-04-12T01:43:23.158Z,0.00
2024-04-12T01:44:22.581Z,0.00
2024-04-12T01:45:22.609Z,0.00
2024-04-12T01:46:22.551Z,0.00
2024-04-12T01:47:22.604Z,0.00
2024-04-12T01:48:22.685Z,0.00
2024-04-12T01:49:22.525Z,0.00
2024-04-12T01:50:22.539Z,0.00
2024-04-12T01:51:22.538Z,0.00
2024-04-12T01:52:22.484Z,0.00
2024-04-12T01:53:22.473Z,0.00
2024-04-12T01:54:22.462Z,0.00
2024-04-12T01:55:22.473Z,0.00
2024-04-12T01:56:22.452Z,0.00
2024-04-12T01:57:22.443Z,0.00
2024-04-12T01:58:22.456Z,0.00
2024-04-12T01:59:22.432Z,0.00
2024-04-12T02:00:22.388Z,0.00
2024-04-12T02:01:22.383Z,0.00
2024-04-12T02:02:22.378Z,0.00
2024-04-12T02:03:22.419Z,0.00
2024-04-12T02:04:23.172Z,0.00
2024-04-12T02:05:22.340Z,0.00
2024-04-12T02:06:22.327Z,0.00
2024-04-12T02:07:22.320Z,0.00
2024-04-12T02:08:22.308Z,0.00
2024-04-12T02:09:22.317Z,0.00
2024-04-12T02:10:22.313Z,0.00
2024-04-12T02:11:22.340Z,0.00
2024-04-12T02:12:22.355Z,0.00
2024-04-12T02:13:24.339Z,0.00
2024-04-12T02:14:22.237Z,0.00
2024-04-12T02:15:22.230Z,0.00
2024-04-12T02:16:22.281Z,0.00
2024-04-12T02:17:22.233Z,0.00
2024-04-12T02:18:22.963Z,0.00
2024-04-12T02:19:22.204Z,0.00
2024-04-12T02:20:22.188Z,0.00
2024-04-12T02:21:22.227Z,0.00
2024-04-12T02:22:22.157Z,0.00
2024-04-12T02:23:22.329Z,0.00
2024-04-12T02:24:22.143Z,0.00
2024-04-12T02:25:22.115Z,0.00
2024-04-12T02:26:22.105Z,0.00
2024-04-12T02:27:22.129Z,0.00
2024-04-12T02:28:22.080Z,0.00
2024-04-12T02:29:22.082Z,0.00
2024-04-12T02:30:22.072Z,0.00
2024-04-12T02:31:22.058Z,0.00
2024-04-12T02:32:22.114Z,0.00
2024-04-12T02:33:22.100Z,0.00
2024-04-12T02:34:22.030Z,0.00
2024-04-12T02:35:22.017Z,0.00
2024-04-12T02:36:22.004Z,0.00
2024-04-12T02:37:21.987Z,0.00
2024-04-12T02:38:21.975Z,0.00
2024-04-12T02:39:22.015Z,0.00
2024-04-12T02:40:21.965Z,0.00
2024-04-12T02:41:22.001Z,0.00
2024-04-12T02:42:21.928Z,0.00
2024-04-12T02:43:21.926Z,0.00
2024-04-12T02:44:21.965Z,0.00
2024-04-12T02:45:21.918Z,0.00
2024-04-12T02:46:21.913Z,0.00
2024-04-12T02:47:21.932Z,0.00
2024-04-12T02:48:22.161Z,0.00
2024-04-12T02:49:21.854Z,0.00
2024-04-12T02:50:21.838Z,0.00
2024-04-12T02:51:21.842Z,0.00
2024-04-12T02:52:21.815Z,0.00
2024-04-12T02:53:21.830Z,0.00
2024-04-12T02:54:25.372Z,0.00
2024-04-12T02:55:21.815Z,0.00
2024-04-12T02:56:21.894Z,0.00
2024-04-12T02:57:21.785Z,0.00
2024-04-12T02:58:21.756Z,0.00
2024-04-12T02:59:21.790Z,0.00
2024-04-12T03:00:21.811Z,0.00
2024-04-12T03:01:21.848Z,0.00
2024-04-12T03:02:21.836Z,0.00
2024-04-12T03:03:21.849Z,0.00
2024-04-12T03:04:21.710Z,0.00
2024-04-12T03:05:21.699Z,0.00
2024-04-12T03:06:21.659Z,0.00
2024-04-12T03:07:21.689Z,0.00
2024-04-12T03:08:21.670Z,0.00
2024-04-12T03:09:21.646Z,0.00
2024-04-12T03:10:21.619Z,0.00
2024-04-12T03:11:21.692Z,0.00
2024-04-12T03:12:21.650Z,0.00
2024-04-12T03:13:21.599Z,0.00
2024-04-12T03:14:21.632Z,0.00
2024-04-12T03:15:21.564Z,0.00
2024-04-12T03:16:21.645Z,0.00
2024-04-12T03:17:21.552Z,0.00
2024-04-12T03:18:21.637Z,0.00
2024-04-12T03:19:21.528Z,0.00
2024-04-12T03:20:21.534Z,0.00
2024-04-12T03:21:21.492Z,0.00
2024-04-12T03:22:21.534Z,0.00
2024-04-12T03:23:21.485Z,0.00
2024-04-12T03:24:21.482Z,0.00
2024-04-12T03:25:21.468Z,0.00
2024-04-12T03:26:21.531Z,0.00
2024-04-12T03:27:21.428Z,0.00
2024-04-12T03:28:21.438Z,0.00
2024-04-12T03:29:21.420Z,0.00
2024-04-12T03:30:21.397Z,0.00
2024-04-12T03:31:21.388Z,0.00
2024-04-12T03:32:21.448Z,0.00
2024-04-12T03:33:21.410Z,0.00
2024-04-12T03:34:21.346Z,0.00
2024-04-12T03:35:21.379Z,0.00
2024-04-12T03:36:21.343Z,0.00
2024-04-12T03:37:21.321Z,0.00
2024-04-12T03:38:21.360Z,0.00
2024-04-12T03:39:23.369Z,0.00
2024-04-12T03:40:21.281Z,0.00
2024-04-12T03:41:21.280Z,0.00
2024-04-12T03:42:21.260Z,0.00
2024-04-12T03:43:21.248Z,0.00
2024-04-12T03:44:21.293Z,0.00
2024-04-12T03:45:21.285Z,0.00
2024-04-12T03:46:21.230Z,0.00
2024-04-12T03:47:21.255Z,0.00
2024-04-12T03:48:21.344Z,0.00
2024-04-12T03:49:21.187Z,0.00
2024-04-12T03:50:21.212Z,0.00
2024-04-12T03:51:21.294Z,0.00
2024-04-12T03:52:21.376Z,0.00
2024-04-12T03:53:21.156Z,0.00
2024-04-12T03:54:21.142Z,0.00
2024-04-12T03:55:21.142Z,0.00
2024-04-12T03:56:21.123Z,0.00
2024-04-12T03:57:21.125Z,0.00
2024-04-12T03:58:21.108Z,0.00
2024-04-12T03:59:21.095Z,0.00
2024-04-12T04:00:21.125Z,0.00
2024-04-12T04:01:21.069Z,0.00
2024-04-12T04:02:21.161Z,0.00
2024-04-12T04:03:21.106Z,0.00
2024-04-12T04:04:21.027Z,0.00
2024-04-12T04:05:21.015Z,0.00
2024-04-12T04:06:20.958Z,0.00
2024-04-12T04:07:21.277Z,0.00
2024-04-12T04:08:21.054Z,0.00
2024-04-12T04:09:21.066Z,0.00
2024-04-12T04:10:20.914Z,0.00
2024-04-12T04:11:20.955Z,0.00
2024-04-12T04:12:20.882Z,0.00
2024-04-12T04:13:20.874Z,0.00
2024-04-12T04:14:20.915Z,0.00
2024-04-12T04:15:20.956Z,0.00
2024-04-12T04:16:20.830Z,0.00
2024-04-12T04:17:20.889Z,0.00
2024-04-12T04:18:20.934Z,0.00
2024-04-12T04:19:20.908Z,0.00
2024-04-12T04:20:20.817Z,0.00
2024-04-12T04:21:20.836Z,0.00
2024-04-12T04:22:20.767Z,0.00
2024-04-12T04:23:20.766Z,0.00
2024-04-12T04:24:20.754Z,0.00
2024-04-12T04:25:20.921Z,0.00
2024-04-12T04:26:20.727Z,0.00
2024-04-12T04:27:20.766Z,0.00
2024-04-12T04:28:20.701Z,0.00
2024-04-12T04:29:20.699Z,0.00
2024-04-12T04:30:20.743Z,0.00
2024-04-12T04:31:20.677Z,0.00
2024-04-12T04:32:20.770Z,0.00
2024-04-12T04:33:20.783Z,0.00
2024-04-12T04:34:20.636Z,0.00
2024-04-12T04:35:20.628Z,5.62
2024-04-12T04:36:20.621Z,5.62
2024-04-12T04:37:23.390Z,5.62
2024-04-12T04:38:20.631Z,5.62
2024-04-12T04:39:20.639Z,5.62
2024-04-12T04:40:20.584Z,5.62
2024-04-12T04:41:20.756Z,5.62
2024-04-12T04:42:20.550Z,5.62
2024-04-12T04:43:20.539Z,5.62
2024-04-12T04:44:20.531Z,11.25
2024-04-12T04:45:21.114Z,11.25
2024-04-12T04:46:20.510Z,11.25
2024-04-12T04:47:20.534Z,11.25
2024-04-12T04:48:20.587Z,11.25
2024-04-12T04:49:20.576Z,11.25
2024-04-12T04:50:21.289Z,11.25
2024-04-12T04:51:20.617Z,16.88
2024-04-12T04:52:20.443Z,16.88
2024-04-12T04:53:20.431Z,16.88
2024-04-12T04:54:20.421Z,16.88
2024-04-12T04:55:20.436Z,16.88
2024-04-12T04:56:20.404Z,16.88
2024-04-12T04:57:20.420Z,16.88
2024-04-12T04:58:20.381Z,22.50
2024-04-12T04:59:20.370Z,22.50
2024-04-12T05:00:20.897Z,22.50
2024-04-12T05:01:20.355Z,22.50
2024-04-12T05:02:20.413Z,22.50
2024-04-12T05:03:20.426Z,28.12
2024-04-12T05:04:20.338Z,28.12
2024-04-12T05:05:22.982Z,28.12
2024-04-12T05:06:20.347Z,28.12
2024-04-12T05:07:20.316Z,28.12
2024-04-12T05:08:20.271Z,28.12
2024-04-12T05:09:20.260Z,33.75
2024-04-12T05:10:20.270Z,33.75
2024-04-12T05:11:20.242Z,33.75
2024-04-12T05:12:20.303Z,33.75
2024-04-12T05:13:20.233Z,33.75
2024-04-12T05:14:20.230Z,33.75
2024-04-12T05:15:20.210Z,33.75
2024-04-12T05:16:20.196Z,39.38
2024-04-12T05:17:20.206Z,39.38
2024-04-12T05:18:20.258Z,39.38
2024-04-12T05:19:20.161Z,39.38
2024-04-12T05:20:20.189Z,39.38
2024-04-12T05:21:20.194Z,45.00
2024-04-12T05:22:20.125Z,45.00
2024-04-12T05:23:20.318Z,45.00
2024-04-12T05:24:20.193Z,45.00
2024-04-12T05:25:20.112Z,50.62
2024-04-12T05:26:20.079Z,50.62
2024-04-12T05:27:20.141Z,50.62
2024-04-12T05:28:20.075Z,56.25
2024-04-12T05:29:20.050Z,56.25
2024-04-12T05:30:20.079Z,56.25
2024-04-12T05:31:20.035Z,56.25
2024-04-12T05:32:20.035Z,56.25
2024-04-12T05:33:20.048Z,56.25
2024-04-12T05:34:20.043Z,61.88
2024-04-12T05:35:19.997Z,61.88
2024-04-12T05:36:20.026Z,61.88
2024-04-12T05:37:19.972Z,61.88
2024-04-12T05:38:19.965Z,67.50
2024-04-12T05:39:19.950Z,61.88
2024-04-12T05:40:19.980Z,67.50
2024-04-12T05:41:19.924Z,67.50
2024-04-12T05:42:19.962Z,67.50
2024-04-12T05:43:19.935Z,67.50
2024-04-12T05:44:19.948Z,73.12
2024-04-12T05:45:19.936Z,73.12
2024-04-12T05:46:19.913Z,73.12
2024-04-12T05:47:19.978Z,73.12
2024-04-12T05:48:19.997Z,73.12
2024-04-12T05:49:19.863Z,73.12
2024-04-12T05:50:19.819Z,78.75
2024-04-12T05:51:21.495Z,78.75
2024-04-12T05:52:19.904Z,78.75
2024-04-12T05:53:19.941Z,73.12
2024-04-12T05:54:19.774Z,73.12
2024-04-12T05:55:19.769Z,78.75
2024-04-12T05:56:19.828Z,78.75
2024-04-12T05:57:19.798Z,78.75
2024-04-12T05:58:19.733Z,78.75
2024-04-12T05:59:19.742Z,78.75
2024-04-12T06:00:19.773Z,78.75
2024-04-12T06:01:19.699Z,78.75
2024-04-12T06:02:19.751Z,84.38
2024-04-12T06:03:19.792Z,84.38
2024-04-12T06:04:19.720Z,84.38
2024-04-12T06:05:19.714Z,84.38
2024-04-12T06:06:19.663Z,84.38
2024-04-12T06:07:19.639Z,84.38
2024-04-12T06:08:19.631Z,90.00
2024-04-12T06:09:20.166Z,90.00
2024-04-12T06:10:19.609Z,90.00
2024-04-12T06:11:19.606Z,90.00
2024-04-12T06:12:19.622Z,95.62
2024-04-12T06:13:19.569Z,95.62
2024-04-12T06:14:19.566Z,95.62
2024-04-12T06:15:19.687Z,101.25
2024-04-12T06:16:19.688Z,101.25
2024-04-12T06:17:19.528Z,101.25
2024-04-12T06:18:19.599Z,101.25
2024-04-12T06:19:19.520Z,101.25
2024-04-12T06:20:19.503Z,106.88
2024-04-12T06:21:19.511Z,106.88
2024-04-12T06:22:19.466Z,112.50
2024-04-12T06:23:19.458Z,112.50
2024-04-12T06:24:19.538Z,118.12
2024-04-12T06:25:19.432Z,123.75
2024-04-12T06:26:19.430Z,123.75
2024-04-12T06:27:19.447Z,123.75
2024-04-12T06:28:19.411Z,118.12
2024-04-12T06:29:26.566Z,112.50
2024-04-12T06:30:19.459Z,106.88
2024-04-12T06:31:19.379Z,106.88
2024-04-12T06:32:19.383Z,106.88
2024-04-12T06:33:19.520Z,106.88
2024-04-12T06:34:19.348Z,106.88
2024-04-12T06:35:19.331Z,106.88
2024-04-12T06:36:19.318Z,106.88
2024-04-12T06:37:22.866Z,106.88
2024-04-12T06:38:19.300Z,106.88
2024-04-12T06:39:19.326Z,106.88
2024-04-12T06:40:19.308Z,106.88
2024-04-12T06:41:19.282Z,112.50
2024-04-12T06:42:19.381Z,112.50
2024-04-12T06:43:19.238Z,112.50
2024-04-12T06:44:19.235Z,112.50
2024-04-12T06:45:19.241Z,112.50
2024-04-12T06:46:19.217Z,112.50
2024-04-12T06:47:19.258Z,112.50
2024-04-12T06:48:19.361Z,112.50
2024-04-12T06:49:19.183Z,118.12
2024-04-12T06:50:19.258Z,123.75
2024-04-12T06:51:19.232Z,129.38
2024-04-12T06:52:19.149Z,129.38
2024-04-12T06:53:19.150Z,135.00
2024-04-12T06:54:19.175Z,135.00
2024-04-12T06:55:19.108Z,151.88
2024-04-12T06:56:19.289Z,146.25
2024-04-12T06:57:19.756Z,135.00
2024-04-12T06:58:19.085Z,129.38
2024-04-12T06:59:19.078Z,123.75
2024-04-12T07:00:19.172Z,146.25
2024-04-12T07:01:19.097Z,151.88
2024-04-12T07:02:19.034Z,151.88
2024-04-12T07:03:19.081Z,163.12
2024-04-12T07:04:19.052Z,180.00
2024-04-12T07:05:19.010Z,191.25
2024-04-12T07:06:19.032Z,213.75
2024-04-12T07:07:19.029Z,213.75
2024-04-12T07:08:18.982Z,180.00
2024-04-12T07:09:18.956Z,168.75
2024-04-12T07:10:18.944Z,185.62
2024-04-12T07:11:18.993Z,225.00
2024-04-12T07:12:18.933Z,225.00
2024-04-12T07:13:18.959Z,230.62
2024-04-12T07:14:18.930Z,236.25
2024-04-12T07:15:19.000Z,230.62
2024-04-12T07:16:18.915Z,253.12
2024-04-12T07:17:18.972Z,241.88
2024-04-12T07:18:18.999Z,241.88
2024-04-12T07:19:18.902Z,247.50
2024-04-12T07:20:18.846Z,264.38
2024-04-12T07:21:18.856Z,281.25
2024-04-12T07:22:18.847Z,309.38
2024-04-12T07:23:18.822Z,309.38
2024-04-12T07:24:18.830Z,309.38
2024-04-12T07:25:18.864Z,309.38
2024-04-12T07:26:18.779Z,298.12
2024-04-12T07:27:18.766Z,309.38
2024-04-12T07:28:18.770Z,315.00
2024-04-12T07:29:18.748Z,303.75
2024-04-12T07:30:18.794Z,303.75
2024-04-12T07:31:18.750Z,303.75
2024-04-12T07:32:18.963Z,298.12
2024-04-12T07:33:18.900Z,298.12
2024-04-12T07:34:18.723Z,320.62
2024-04-12T07:35:18.691Z,337.50
2024-04-12T07:36:18.762Z,343.12
2024-04-12T07:37:18.664Z,337.50
2024-04-12T07:38:18.661Z,326.25
2024-04-12T07:39:18.693Z,337.50
2024-04-12T07:40:18.662Z,337.50
2024-04-12T07:41:18.629Z,343.12
2024-04-12T07:42:18.692Z,348.75
2024-04-12T07:43:20.795Z,365.62
2024-04-12T07:44:18.610Z,343.12
2024-04-12T07:45:18.650Z,354.38
2024-04-12T07:46:18.570Z,343.12
2024-04-12T07:47:18.604Z,331.88
2024-04-12T07:48:18.680Z,320.62
2024-04-12T07:49:18.548Z,292.50
2024-04-12T07:50:18.526Z,309.38
2024-04-12T07:51:18.562Z,315.00
2024-04-12T07:52:18.524Z,281.25
2024-04-12T07:53:18.493Z,270.00
2024-04-12T07:54:18.611Z,258.75
2024-04-12T07:55:18.486Z,264.38
2024-04-12T07:56:18.471Z,270.00
2024-04-12T07:57:18.471Z,281.25
2024-04-12T07:58:18.533Z,264.38
2024-04-12T07:59:18.484Z,292.50
2024-04-12T08:00:18.461Z,303.75
2024-04-12T08:01:18.562Z,331.88
2024-04-12T08:02:20.856Z,360.00
2024-04-12T08:03:18.741Z,376.88
2024-04-12T08:04:18.446Z,365.62
2024-04-12T08:05:18.358Z,405.00
2024-04-12T08:06:18.352Z,393.75
2024-04-12T08:07:18.335Z,388.12
2024-04-12T08:08:18.337Z,360.00
2024-04-12T08:09:18.371Z,365.62
2024-04-12T08:10:18.315Z,360.00
2024-04-12T08:11:18.307Z,331.88
2024-04-12T08:12:18.328Z,298.12
2024-04-12T08:13:18.280Z,309.38
2024-04-12T08:14:18.265Z,337.50
2024-04-12T08:15:18.377Z,365.62
2024-04-12T08:16:18.244Z,365.62
2024-04-12T08:17:18.245Z,337.50
2024-04-12T08:18:18.403Z,348.75
2024-04-12T08:19:18.298Z,326.25
2024-04-12T08:20:18.210Z,281.25
2024-04-12T08:21:18.316Z,309.38
2024-04-12T08:22:18.287Z,315.00
2024-04-12T08:23:18.178Z,354.38
2024-04-12T08:24:18.272Z,421.88
2024-04-12T08:25:18.152Z,399.38
2024-04-12T08:26:18.148Z,405.00
2024-04-12T08:27:18.155Z,421.88
2024-04-12T08:28:18.170Z,438.75
2024-04-12T08:29:18.126Z,438.75
2024-04-12T08:30:18.142Z,455.62
2024-04-12T08:31:18.119Z,438.75
2024-04-12T08:32:18.113Z,410.62
2024-04-12T08:33:18.181Z,416.25
2024-04-12T08:34:18.086Z,405.00
2024-04-12T08:35:18.041Z,376.88
2024-04-12T08:36:18.069Z,360.00
2024-04-12T08:37:18.091Z,365.62
2024-04-12T08:38:18.010Z,410.62
2024-04-12T08:39:18.037Z,371.25
2024-04-12T08:40:18.012Z,309.38
2024-04-12T08:41:17.991Z,421.88
2024-04-12T08:42:18.051Z,416.25
2024-04-12T08:43:20.690Z,393.75
2024-04-12T08:44:17.952Z,371.25
2024-04-12T08:45:18.125Z,331.88
2024-04-12T08:46:17.922Z,303.75
2024-04-12T08:47:18.300Z,337.50
2024-04-12T08:48:18.042Z,371.25
2024-04-12T08:49:17.895Z,298.12
2024-04-12T08:50:17.924Z,281.25
2024-04-12T08:51:17.909Z,281.25
2024-04-12T08:52:17.868Z,236.25
2024-04-12T08:53:17.842Z,264.38
2024-04-12T08:54:17.913Z,320.62
2024-04-12T08:55:18.939Z,331.88
2024-04-12T08:56:17.831Z,399.38
2024-04-12T08:57:17.869Z,393.75
2024-04-12T08:58:17.788Z,360.00
2024-04-12T08:59:17.779Z,410.62
2024-04-12T09:00:17.839Z,337.50
2024-04-12T09:01:17.766Z,320.62
2024-04-12T09:02:17.762Z,343.12
2024-04-12T09:03:17.821Z,348.75
2024-04-12T09:04:17.950Z,343.12
2024-04-12T09:05:20.718Z,315.00
2024-04-12T09:06:17.809Z,281.25
2024-04-12T09:07:17.795Z,275.62
2024-04-12T09:08:17.694Z,298.12
2024-04-12T09:09:17.689Z,315.00
2024-04-12T09:10:17.721Z,343.12
2024-04-12T09:11:17.673Z,365.62
2024-04-12T09:12:17.732Z,348.75
2024-04-12T09:13:17.633Z,365.62
2024-04-12T09:14:17.615Z,348.75
2024-04-12T09:15:17.620Z,337.50
2024-04-12T09:16:17.603Z,337.50
2024-04-12T09:17:17.683Z,298.12
2024-04-12T09:18:17.935Z,292.50
2024-04-12T09:19:17.794Z,286.88
2024-04-12T09:20:17.548Z,281.25
2024-04-12T09:21:17.776Z,286.88
2024-04-12T09:22:17.526Z,303.75
2024-04-12T09:23:17.568Z,298.12
2024-04-12T09:24:17.543Z,309.38
2024-04-12T09:25:17.502Z,320.62
2024-04-12T09:26:17.507Z,315.00
2024-04-12T09:27:17.555Z,354.38
2024-04-12T09:28:17.472Z,393.75
2024-04-12T09:29:17.482Z,393.75
2024-04-12T09:30:17.535Z,410.62
2024-04-12T09:31:17.444Z,433.12
2024-04-12T09:32:17.450Z,416.25
2024-04-12T09:33:17.514Z,444.38
2024-04-12T09:34:17.533Z,556.88
2024-04-12T09:35:17.415Z,506.25
2024-04-12T09:36:17.439Z,511.88
2024-04-12T09:37:17.370Z,461.25
2024-04-12T09:38:17.450Z,483.75
2024-04-12T09:39:17.472Z,534.38
2024-04-12T09:40:17.339Z,556.88
2024-04-12T09:41:17.405Z,635.62
2024-04-12T09:42:17.363Z,646.88
2024-04-12T09:43:17.313Z,686.25
2024-04-12T09:44:17.295Z,618.75
2024-04-12T09:45:17.391Z,669.38
2024-04-12T09:46:17.266Z,703.12
2024-04-12T09:47:17.413Z,731.25
2024-04-12T09:48:17.348Z,686.25
2024-04-12T09:49:17.244Z,691.88
2024-04-12T09:50:17.243Z,691.88
2024-04-12T09:51:17.294Z,669.38
2024-04-12T09:52:17.230Z,720.00
2024-04-12T09:53:17.226Z,680.62
2024-04-12T09:54:17.343Z,607.50
2024-04-12T09:55:17.181Z,579.38
2024-04-12T09:56:17.165Z,500.62
2024-04-12T09:57:17.347Z,500.62
2024-04-12T09:58:17.176Z,534.38
2024-04-12T09:59:17.136Z,534.38
2024-04-12T10:00:17.290Z,568.12
2024-04-12T10:01:17.118Z,500.62
2024-04-12T10:02:17.101Z,478.12
2024-04-12T10:03:17.182Z,562.50
2024-04-12T10:04:17.131Z,585.00
2024-04-12T10:05:17.120Z,483.75
2024-04-12T10:06:17.099Z,506.25
2024-04-12T10:07:17.072Z,534.38
2024-04-12T10:08:17.055Z,568.12
2024-04-12T10:09:17.185Z,590.62
2024-04-12T10:10:17.054Z,663.75
2024-04-12T10:11:17.070Z,607.50
2024-04-12T10:12:17.036Z,534.38
2024-04-12T10:13:17.010Z,556.88
2024-04-12T10:14:16.995Z,618.75
2024-04-12T10:15:17.092Z,669.38
2024-04-12T10:16:16.994Z,680.62
2024-04-12T10:17:17.075Z,624.38
2024-04-12T10:18:17.102Z,585.00
2024-04-12T10:19:16.969Z,630.00
2024-04-12T10:20:16.935Z,714.38
2024-04-12T10:21:16.968Z,601.88
2024-04-12T10:22:16.895Z,630.00
2024-04-12T10:23:16.897Z,652.50
2024-04-12T10:24:16.941Z,720.00
2024-04-12T10:25:16.875Z,720.00
2024-04-12T10:26:16.877Z,556.88
2024-04-12T10:27:16.916Z,630.00
2024-04-12T10:28:16.856Z,675.00
2024-04-12T10:29:16.832Z,579.38
2024-04-12T10:30:16.880Z,534.38
2024-04-12T10:31:16.805Z,573.75
2024-04-12T10:32:16.836Z,568.12
2024-04-12T10:33:16.909Z,540.00
2024-04-12T10:34:16.791Z,624.38
2024-04-12T10:35:16.772Z,748.12
2024-04-12T10:36:17.042Z,646.88
2024-04-12T10:37:17.438Z,798.75
2024-04-12T10:38:27.386Z,562.50
2024-04-12T10:39:16.825Z,495.00
2024-04-12T10:40:16.709Z,506.25
2024-04-12T10:41:16.845Z,568.12
2024-04-12T10:42:16.702Z,573.75
2024-04-12T10:43:16.674Z,573.75
2024-04-12T10:44:16.667Z,590.62
2024-04-12T10:45:16.918Z,500.62
2024-04-12T10:46:16.661Z,534.38
2024-04-12T10:47:16.659Z,579.38
2024-04-12T10:48:16.692Z,562.50
2024-04-12T10:49:16.601Z,613.12
2024-04-12T10:50:16.746Z,725.62
2024-04-12T10:51:16.946Z,759.38
2024-04-12T10:52:16.582Z,646.88
2024-04-12T10:53:16.610Z,686.25
2024-04-12T10:54:16.615Z,658.12
2024-04-12T10:55:16.576Z,731.25
2024-04-12T10:56:16.537Z,742.50
2024-04-12T10:57:16.524Z,798.75
2024-04-12T10:58:16.506Z,787.50
2024-04-12T10:59:16.553Z,523.12
2024-04-12T11:00:16.856Z,500.62
2024-04-12T11:01:16.490Z,624.38
2024-04-12T11:02:16.467Z,652.50
2024-04-12T11:03:18.786Z,894.38
2024-04-12T11:04:16.610Z,849.38
2024-04-12T11:05:16.457Z,686.25
2024-04-12T11:06:16.509Z,669.38
2024-04-12T11:07:16.408Z,573.75
2024-04-12T11:08:23.230Z,545.62
2024-04-12T11:09:16.502Z,540.00
2024-04-12T11:10:16.391Z,607.50
2024-04-12T11:11:16.464Z,815.62
2024-04-12T11:12:16.427Z,1158.75
2024-04-12T11:13:16.349Z,2874.38
2024-04-12T11:14:16.328Z,1428.75
2024-04-12T11:15:16.392Z,877.50
2024-04-12T11:16:16.318Z,2874.38
2024-04-12T11:17:16.313Z,1130.62
2024-04-12T11:18:16.386Z,843.75
2024-04-12T11:19:16.363Z,826.88
2024-04-12T11:20:16.263Z,894.38
2024-04-12T11:21:16.436Z,888.75
2024-04-12T11:22:16.241Z,843.75
2024-04-12T11:23:16.284Z,2874.38
2024-04-12T11:24:16.248Z,1395.00
2024-04-12T11:25:16.297Z,849.38
2024-04-12T11:26:16.205Z,2874.38
2024-04-12T11:27:16.217Z,1198.12
2024-04-12T11:28:16.203Z,1113.75
2024-04-12T11:29:16.186Z,961.88
2024-04-12T11:30:16.236Z,883.12
2024-04-12T11:31:17.330Z,866.25
2024-04-12T11:32:16.139Z,1164.38
2024-04-12T11:33:21.777Z,1018.12
2024-04-12T11:34:18.214Z,1125.00
2024-04-12T11:35:16.260Z,1327.50
2024-04-12T11:36:16.128Z,2874.38
2024-04-12T11:37:16.081Z,1068.75
2024-04-12T11:38:16.079Z,990.00
2024-04-12T11:39:16.116Z,1366.88
2024-04-12T11:40:16.078Z,1119.38
2024-04-12T11:41:16.041Z,1333.12
2024-04-12T11:42:16.068Z,2874.38
2024-04-12T11:43:16.019Z,990.00
2024-04-12T11:44:16.040Z,770.62
2024-04-12T11:45:16.240Z,849.38
2024-04-12T11:46:16.034Z,821.25
2024-04-12T11:47:16.003Z,703.12
2024-04-12T11:48:16.511Z,725.62
2024-04-12T11:49:15.977Z,759.38
2024-04-12T11:50:15.951Z,905.62
2024-04-12T11:51:15.961Z,978.75
2024-04-12T11:52:15.972Z,1057.50
2024-04-12T11:53:15.913Z,714.38
2024-04-12T11:54:15.965Z,720.00
2024-04-12T11:55:15.887Z,759.38
2024-04-12T11:56:15.882Z,742.50
2024-04-12T11:57:15.903Z,978.75
2024-04-12T11:58:16.501Z,1113.75
2024-04-12T11:59:15.848Z,883.12
2024-04-12T12:00:16.003Z,973.12
2024-04-12T12:01:15.828Z,776.25
2024-04-12T12:02:15.925Z,731.25
2024-04-12T12:03:17.559Z,641.25
2024-04-12T12:04:15.830Z,568.12
2024-04-12T12:05:15.786Z,562.50
2024-04-12T12:06:15.815Z,534.38
2024-04-12T12:07:15.775Z,545.62
2024-04-12T12:08:15.755Z,523.12
2024-04-12T12:09:15.814Z,506.25
2024-04-12T12:10:15.750Z,495.00
2024-04-12T12:11:15.728Z,483.75
2024-04-12T12:12:15.829Z,489.38
2024-04-12T12:13:17.999Z,461.25
2024-04-12T12:14:15.742Z,461.25
2024-04-12T12:15:16.228Z,382.50
2024-04-12T12:16:15.706Z,360.00
2024-04-12T12:17:15.659Z,343.12
2024-04-12T12:18:15.723Z,365.62
2024-04-12T12:19:17.906Z,382.50
2024-04-12T12:20:15.673Z,376.88
2024-04-12T12:21:15.860Z,331.88
2024-04-12T12:22:15.620Z,315.00
2024-04-12T12:23:15.599Z,315.00
2024-04-12T12:24:15.646Z,298.12
2024-04-12T12:25:15.592Z,320.62
2024-04-12T12:26:15.622Z,320.62
2024-04-12T12:27:15.615Z,326.25
2024-04-12T12:28:15.556Z,337.50
2024-04-12T12:29:15.525Z,337.50
2024-04-12T12:30:15.988Z,427.50
2024-04-12T12:31:15.512Z,523.12
2024-04-12T12:32:23.417Z,568.12
2024-04-12T12:33:15.709Z,596.25
2024-04-12T12:34:15.687Z,613.12
2024-04-12T12:35:15.464Z,680.62
2024-04-12T12:36:15.486Z,860.62
2024-04-12T12:37:15.444Z,922.50
2024-04-12T12:38:15.442Z,1091.25
2024-04-12T12:39:15.509Z,2874.38
2024-04-12T12:40:15.432Z,2874.38
2024-04-12T12:41:15.402Z,2874.38
2024-04-12T12:42:15.459Z,4314.38
2024-04-12T12:43:15.375Z,4314.38
2024-04-12T12:44:15.373Z,4314.38
2024-04-12T12:45:15.977Z,5754.38
2024-04-12T12:46:15.374Z,4314.38
2024-04-12T12:47:15.410Z,5754.38
2024-04-12T12:48:15.440Z,4314.38